Oklahoma City/Tinker AFB, Oklahoma
Current Conditions -  °F | °C
As of 10:58 PM on Tuesday 25 Nov 2014 (Local Time) from KTIK Reporting Station
Clear Clear  
Wind Chill: 35°   Ceiling: Unl
Heat Index: 42°   Visibility: 10mi
Dew Point: 26°   Wind: 13mph
Humidity: 52%   Direction: 170°S
Pressure: 30.01"   Gusts: NA
Location:  35.42°N, 97.38°W
Report Text: KTIK 260458Z AUTO 17011KT 10SM CLR 06/M03 A3001 RMK AO2 SLP173 T00571035
Loading
Personal Weather Stations






























Interactive Weather Map New forecast layout! Learn more

10-Day Weather Forecast

Advertisements
Track Severe Weather on mobile